sensor_id;sensor_type;location;lat;lon;timestamp;pressure;altitude;pressure_sealevel;temperature;humidity
24280;BME280;12395;42.808;23.408;2023-03-26T00:01:21;94397.06;;;10.91;85.45
24280;BME280;12395;42.808;23.408;2023-03-26T00:03:47;94388.09;;;10.92;85.60
24280;BME280;12395;42.808;23.408;2023-03-26T00:06:17;94375.06;;;10.90;85.71
24280;BME280;12395;42.808;23.408;2023-03-26T00:08:44;94382.78;;;10.92;86.18
24280;BME280;12395;42.808;23.408;2023-03-26T00:11:11;94378.63;;;10.84;87.85
24280;BME280;12395;42.808;23.408;2023-03-26T00:13:37;94365.06;;;10.74;91.46
24280;BME280;12395;42.808;23.408;2023-03-26T00:16:02;94362.53;;;10.61;92.28
24280;BME280;12395;42.808;23.408;2023-03-26T00:18:28;94368.19;;;10.46;93.88
24280;BME280;12395;42.808;23.408;2023-03-26T00:20:59;94361.78;;;10.36;94.31
24280;BME280;12395;42.808;23.408;2023-03-26T00:23:25;94357.03;;;10.26;94.53
24280;BME280;12395;42.808;23.408;2023-03-26T00:25:52;94351.19;;;10.18;94.54
24280;BME280;12395;42.808;23.408;2023-03-26T00:28:18;94366.69;;;10.14;94.16
24280;BME280;12395;42.808;23.408;2023-03-26T00:30:49;94362.06;;;10.03;93.62
24280;BME280;12395;42.808;23.408;2023-03-26T00:33:20;94370.38;;;9.82;93.29
24280;BME280;12395;42.808;23.408;2023-03-26T00:35:50;94359.84;;;9.75;93.52
24280;BME280;12395;42.808;23.408;2023-03-26T00:38:15;94368.91;;;9.61;94.32
24280;BME280;12395;42.808;23.408;2023-03-26T00:40:41;94363.25;;;9.58;94.25
24280;BME280;12395;42.808;23.408;2023-03-26T00:43:12;94373.09;;;9.44;94.06
24280;BME280;12395;42.808;23.408;2023-03-26T00:45:44;94387.00;;;9.33;94.62
24280;BME280;12395;42.808;23.408;2023-03-26T00:48:09;94389.09;;;9.18;95.40
24280;BME280;12395;42.808;23.408;2023-03-26T00:50:35;94386.31;;;9.13;96.13
24280;BME280;12395;42.808;23.408;2023-03-26T00:53:01;94388.16;;;9.06;96.18
24280;BME280;12395;42.808;23.408;2023-03-26T00:55:27;94384.50;;;9.00;96.51
24280;BME280;12395;42.808;23.408;2023-03-26T00:57:52;94403.22;;;8.99;96.51
24280;BME280;12395;42.808;23.408;2023-03-26T01:00:19;94390.03;;;8.92;96.50
24280;BME280;12395;42.808;23.408;2023-03-26T01:02:51;94388.03;;;8.81;96.96
24280;BME280;12395;42.808;23.408;2023-03-26T01:08:11;94387.69;;;8.65;98.84
24280;BME280;12395;42.808;23.408;2023-03-26T01:10:39;94385.28;;;8.63;98.61
24280;BME280;12395;42.808;23.408;2023-03-26T01:13:05;94402.94;;;8.63;99.13
24280;BME280;12395;42.808;23.408;2023-03-26T01:15:30;94399.72;;;8.54;99.43
24280;BME280;12395;42.808;23.408;2023-03-26T01:17:55;94406.22;;;8.51;99.85
24280;BME280;12395;42.808;23.408;2023-03-26T01:20:22;94406.03;;;8.53;99.81
24280;BME280;12395;42.808;23.408;2023-03-26T01:22:51;94402.78;;;8.51;100.00
24280;BME280;12395;42.808;23.408;2023-03-26T01:25:18;94409.25;;;8.55;99.73
24280;BME280;12395;42.808;23.408;2023-03-26T01:27:51;94412.31;;;8.52;99.82
24280;BME280;12395;42.808;23.408;2023-03-26T01:30:20;94416.97;;;8.63;99.76
24280;BME280;12395;42.808;23.408;2023-03-26T01:38:09;94418.56;;;8.64;99.38
24280;BME280;12395;42.808;23.408;2023-03-26T01:45:46;94406.41;;;8.63;99.44
24280;BME280;12395;42.808;23.408;2023-03-26T01:48:14;94404.38;;;8.59;99.30
24280;BME280;12395;42.808;23.408;2023-03-26T01:50:39;94414.53;;;8.55;99.62
24280;BME280;12395;42.808;23.408;2023-03-26T01:53:05;94403.19;;;8.48;100.00
24280;BME280;12395;42.808;23.408;2023-03-26T01:55:40;94411.09;;;8.48;100.00
24280;BME280;12395;42.808;23.408;2023-03-26T01:58:31;94411.31;;;8.40;100.00
24280;BME280;12395;42.808;23.408;2023-03-26T02:01:17;94406.88;;;8.34;100.00
24280;BME280;12395;42.808;23.408;2023-03-26T02:09:03;94411.94;;;8.03;100.00
24280;BME280;12395;42.808;23.408;2023-03-26T02:11:30;94410.50;;;7.87;100.00
24280;BME280;12395;42.808;23.408;2023-03-26T02:13:55;94414.56;;;7.83;100.00
24280;BME280;12395;42.808;23.408;2023-03-26T02:16:21;94409.50;;;7.82;100.00
24280;BME280;12395;42.808;23.408;2023-03-26T02:18:47;94416.41;;;7.69;100.00
24280;BME280;12395;42.808;23.408;2023-03-26T02:21:19;94398.53;;;7.52;100.00
24280;BME280;12395;42.808;23.408;2023-03-26T02:23:46;94401.75;;;7.47;100.00
24280;BME280;12395;42.808;23.408;2023-03-26T02:26:13;94402.34;;;7.43;100.00
24280;BME280;12395;42.808;23.408;2023-03-26T02:28:38;94401.50;;;7.29;100.00
24280;BME280;12395;42.808;23.408;2023-03-26T02:31:04;94398.06;;;7.22;100.00
24280;BME280;12395;42.808;23.408;2023-03-26T02:33:30;94397.59;;;7.12;100.00
24280;BME280;12395;42.808;23.408;2023-03-26T02:35:56;94397.84;;;7.17;100.00
24280;BME280;12395;42.808;23.408;2023-03-26T02:38:26;94399.47;;;7.18;100.00
24280;BME280;12395;42.808;23.408;2023-03-26T02:40:52;94404.13;;;7.16;100.00
24280;BME280;12395;42.808;23.408;2023-03-26T02:43:18;94401.09;;;7.19;100.00
24280;BME280;12395;42.808;23.408;2023-03-26T02:45:43;94410.81;;;7.19;100.00
24280;BME280;12395;42.808;23.408;2023-03-26T02:48:08;94419.13;;;7.16;100.00
24280;BME280;12395;42.808;23.408;2023-03-26T02:50:34;94423.56;;;7.15;100.00
24280;BME280;12395;42.808;23.408;2023-03-26T02:53:01;94427.81;;;7.10;100.00
24280;BME280;12395;42.808;23.408;2023-03-26T02:55:26;94425.81;;;7.12;100.00
24280;BME280;12395;42.808;23.408;2023-03-26T02:57:51;94424.78;;;7.13;100.00
24280;BME280;12395;42.808;23.408;2023-03-26T03:00:16;94428.03;;;7.21;100.00
24280;BME280;12395;42.808;23.408;2023-03-26T03:02:42;94435.56;;;7.24;100.00
24280;BME280;12395;42.808;23.408;2023-03-26T03:05:11;94440.00;;;7.24;100.00
24280;BME280;12395;42.808;23.408;2023-03-26T03:07:38;94444.25;;;7.18;100.00
24280;BME280;12395;42.808;23.408;2023-03-26T03:10:04;94440.81;;;7.24;100.00
24280;BME280;12395;42.808;23.408;2023-03-26T03:12:33;94453.41;;;7.29;100.00
24280;BME280;12395;42.808;23.408;2023-03-26T03:14:58;94451.16;;;7.26;100.00
24280;BME280;12395;42.808;23.408;2023-03-26T03:17:23;94446.09;;;7.24;100.00
24280;BME280;12395;42.808;23.408;2023-03-26T03:19:48;94458.22;;;7.19;100.00
24280;BME280;12395;42.808;23.408;2023-03-26T03:22:14;94465.66;;;7.02;100.00
24280;BME280;12395;42.808;23.408;2023-03-26T03:24:39;94475.16;;;6.96;100.00
24280;BME280;12395;42.808;23.408;2023-03-26T03:27:07;94468.22;;;6.89;100.00
24280;BME280;12395;42.808;23.408;2023-03-26T03:29:33;94472.69;;;6.88;100.00
24280;BME280;12395;42.808;23.408;2023-03-26T03:31:58;94462.16;;;6.88;100.00
24280;BME280;12395;42.808;23.408;2023-03-26T03:34:24;94465.41;;;6.90;100.00
24280;BME280;12395;42.808;23.408;2023-03-26T03:36:49;94461.19;;;6.96;100.00
24280;BME280;12395;42.808;23.408;2023-03-26T03:39:14;94467.06;;;6.98;100.00
24280;BME280;12395;42.808;23.408;2023-03-26T03:41:40;94454.34;;;7.08;100.00
24280;BME280;12395;42.808;23.408;2023-03-26T03:44:05;94465.13;;;7.20;100.00
24280;BME280;12395;42.808;23.408;2023-03-26T03:46:30;94466.00;;;7.33;100.00
24280;BME280;12395;42.808;23.408;2023-03-26T03:48:56;94469.28;;;7.48;100.00
24280;BME280;12395;42.808;23.408;2023-03-26T03:51:21;94468.06;;;7.57;100.00
24280;BME280;12395;42.808;23.408;2023-03-26T03:53:47;94469.31;;;7.68;100.00
24280;BME280;12395;42.808;23.408;2023-03-26T03:56:13;94476.63;;;7.72;100.00
24280;BME280;12395;42.808;23.408;2023-03-26T03:58:41;94470.75;;;7.77;100.00
24280;BME280;12395;42.808;23.408;2023-03-26T04:01:09;94479.06;;;7.80;100.00
24280;BME280;12395;42.808;23.408;2023-03-26T04:03:37;94476.63;;;7.86;100.00
24280;BME280;12395;42.808;23.408;2023-03-26T04:06:03;94467.91;;;7.85;100.00
24280;BME280;12395;42.808;23.408;2023-03-26T04:08:31;94469.75;;;7.85;100.00
24280;BME280;12395;42.808;23.408;2023-03-26T04:10:56;94471.16;;;7.80;100.00
24280;BME280;12395;42.808;23.408;2023-03-26T04:13:22;94485.53;;;7.65;100.00
24280;BME280;12395;42.808;23.408;2023-03-26T04:15:47;94494.44;;;7.57;100.00
24280;BME280;12395;42.808;23.408;2023-03-26T04:18:12;94496.63;;;7.47;100.00
24280;BME280;12395;42.808;23.408;2023-03-26T04:20:39;94506.53;;;7.39;100.00
24280;BME280;12395;42.808;23.408;2023-03-26T04:23:06;94509.16;;;7.32;100.00
24280;BME280;12395;42.808;23.408;2023-03-26T04:25:31;94518.63;;;7.20;100.00
24280;BME280;12395;42.808;23.408;2023-03-26T04:27:58;94538.22;;;7.05;100.00
24280;BME280;12395;42.808;23.408;2023-03-26T04:30:25;94532.72;;;7.06;100.00
24280;BME280;12395;42.808;23.408;2023-03-26T04:32:51;94539.84;;;7.12;100.00
24280;BME280;12395;42.808;23.408;2023-03-26T04:35:17;94538.03;;;7.13;100.00
24280;BME280;12395;42.808;23.408;2023-03-26T04:37:43;94538.66;;;7.15;100.00
24280;BME280;12395;42.808;23.408;2023-03-26T04:42:38;94547.84;;;7.32;100.00
24280;BME280;12395;42.808;23.408;2023-03-26T04:45:09;94554.38;;;7.42;100.00
24280;BME280;12395;42.808;23.408;2023-03-26T04:47:35;94557.44;;;7.39;100.00
24280;BME280;12395;42.808;23.408;2023-03-26T04:50:02;94559.59;;;7.29;100.00
24280;BME280;12395;42.808;23.408;2023-03-26T04:52:27;94559.22;;;7.32;100.00
24280;BME280;12395;42.808;23.408;2023-03-26T04:54:52;94562.22;;;7.29;100.00
24280;BME280;12395;42.808;23.408;2023-03-26T04:57:28;94566.28;;;7.32;100.00
24280;BME280;12395;42.808;23.408;2023-03-26T04:59:56;94569.38;;;7.35;100.00
24280;BME280;12395;42.808;23.408;2023-03-26T05:02:21;94568.97;;;7.38;100.00
24280;BME280;12395;42.808;23.408;2023-03-26T05:04:47;94577.97;;;7.50;100.00
24280;BME280;12395;42.808;23.408;2023-03-26T05:07:15;94577.38;;;7.61;100.00
24280;BME280;12395;42.808;23.408;2023-03-26T05:09:41;94577.44;;;7.74;100.00
24280;BME280;12395;42.808;23.408;2023-03-26T05:12:06;94579.09;;;7.82;100.00
24280;BME280;12395;42.808;23.408;2023-03-26T05:14:32;94586.59;;;7.85;100.00
24280;BME280;12395;42.808;23.408;2023-03-26T05:16:57;94581.78;;;7.95;100.00
24280;BME280;12395;42.808;23.408;2023-03-26T05:19:22;94586.66;;;8.05;100.00
24280;BME280;12395;42.808;23.408;2023-03-26T05:21:48;94592.34;;;8.08;100.00
24280;BME280;12395;42.808;23.408;2023-03-26T05:24:13;94590.72;;;8.14;100.00
24280;BME280;12395;42.808;23.408;2023-03-26T05:26:38;94590.97;;;8.32;100.00
24280;BME280;12395;42.808;23.408;2023-03-26T05:29:03;94592.41;;;8.41;100.00
24280;BME280;12395;42.808;23.408;2023-03-26T05:31:29;94589.41;;;8.50;100.00
24280;BME280;12395;42.808;23.408;2023-03-26T05:33:57;94592.22;;;8.62;100.00
24280;BME280;12395;42.808;23.408;2023-03-26T05:36:24;94593.28;;;8.74;100.00
24280;BME280;12395;42.808;23.408;2023-03-26T05:38:50;94592.44;;;8.80;100.00
24280;BME280;12395;42.808;23.408;2023-03-26T05:41:16;94592.63;;;8.92;100.00
24280;BME280;12395;42.808;23.408;2023-03-26T05:43:42;94591.00;;;8.97;100.00
24280;BME280;12395;42.808;23.408;2023-03-26T05:46:12;94590.59;;;9.00;100.00
24280;BME280;12395;42.808;23.408;2023-03-26T05:48:37;94598.50;;;9.00;100.00
24280;BME280;12395;42.808;23.408;2023-03-26T05:51:03;94589.19;;;9.04;100.00
24280;BME280;12395;42.808;23.408;2023-03-26T05:53:29;94590.19;;;9.03;100.00
24280;BME280;12395;42.808;23.408;2023-03-26T05:55:55;94585.53;;;8.92;100.00
24280;BME280;12395;42.808;23.408;2023-03-26T05:58:24;94587.16;;;8.93;100.00
24280;BME280;12395;42.808;23.408;2023-03-26T06:00:55;94572.53;;;8.91;100.00
24280;BME280;12395;42.808;23.408;2023-03-26T06:03:22;94593.22;;;9.00;99.40
24280;BME280;12395;42.808;23.408;2023-03-26T06:05:48;94588.38;;;8.97;99.29
24280;BME280;12395;42.808;23.408;2023-03-26T06:08:14;94583.69;;;8.99;98.40
24280;BME280;12395;42.808;23.408;2023-03-26T06:10:40;94592.44;;;9.06;97.60
24280;BME280;12395;42.808;23.408;2023-03-26T06:13:05;94592.00;;;9.09;97.72
24280;BME280;12395;42.808;23.408;2023-03-26T06:15:30;94581.03;;;9.12;96.78
24280;BME280;12395;42.808;23.408;2023-03-26T06:18:14;94593.22;;;9.13;97.11
24280;BME280;12395;42.808;23.408;2023-03-26T06:20:40;94594.25;;;9.19;96.48
24280;BME280;12395;42.808;23.408;2023-03-26T06:23:06;94597.06;;;9.24;96.24
24280;BME280;12395;42.808;23.408;2023-03-26T06:25:31;94604.56;;;9.33;96.25
24280;BME280;12395;42.808;23.408;2023-03-26T06:27:56;94602.94;;;9.32;94.87
24280;BME280;12395;42.808;23.408;2023-03-26T06:30:21;94612.09;;;9.37;94.71
24280;BME280;12395;42.808;23.408;2023-03-26T06:32:47;94603.97;;;9.38;93.98
24280;BME280;12395;42.808;23.408;2023-03-26T06:35:12;94604.94;;;9.44;94.06
24280;BME280;12395;42.808;23.408;2023-03-26T06:37:38;94605.16;;;9.49;94.02
24280;BME280;12395;42.808;23.408;2023-03-26T06:40:04;94599.66;;;9.50;92.87
24280;BME280;12395;42.808;23.408;2023-03-26T06:42:29;94599.25;;;9.53;92.75
24280;BME280;12395;42.808;23.408;2023-03-26T06:44:55;94595.13;;;9.64;92.41
24280;BME280;12395;42.808;23.408;2023-03-26T06:47:20;94601.22;;;9.71;91.84
24280;BME280;12395;42.808;23.408;2023-03-26T06:49:45;94600.38;;;9.77;92.10
24280;BME280;12395;42.808;23.408;2023-03-26T06:52:10;94600.75;;;9.80;92.42
24280;BME280;12395;42.808;23.408;2023-03-26T06:54:36;94605.44;;;9.85;90.52
24280;BME280;12395;42.808;23.408;2023-03-26T06:57:02;94609.31;;;9.82;88.69
24280;BME280;12395;42.808;23.408;2023-03-26T06:59:27;94613.75;;;9.88;90.16
24280;BME280;12395;42.808;23.408;2023-03-26T07:01:52;94607.81;;;9.99;90.23
24280;BME280;12395;42.808;23.408;2023-03-26T07:04:17;94601.66;;;10.05;89.63
24280;BME280;12395;42.808;23.408;2023-03-26T07:06:43;94602.47;;;10.13;89.47
24280;BME280;12395;42.808;23.408;2023-03-26T07:09:08;94603.47;;;10.18;88.78
24280;BME280;12395;42.808;23.408;2023-03-26T07:11:33;94606.66;;;10.27;88.24
24280;BME280;12395;42.808;23.408;2023-03-26T07:13:58;94606.25;;;10.30;87.37
24280;BME280;12395;42.808;23.408;2023-03-26T07:16:24;94599.28;;;10.35;86.10
24280;BME280;12395;42.808;23.408;2023-03-26T07:18:49;94613.25;;;10.49;85.36
24280;BME280;12395;42.808;23.408;2023-03-26T07:21:15;94614.22;;;10.54;82.00
24280;BME280;12395;42.808;23.408;2023-03-26T07:23:41;94612.19;;;10.56;83.31
24280;BME280;12395;42.808;23.408;2023-03-26T07:26:24;94602.00;;;10.60;83.42
24280;BME280;12395;42.808;23.408;2023-03-26T07:31:51;94609.44;;;10.69;82.35
24280;BME280;12395;42.808;23.408;2023-03-26T07:35:02;94603.31;;;10.75;82.43
24280;BME280;12395;42.808;23.408;2023-03-26T07:42:17;94619.41;;;11.23;74.75
24280;BME280;12395;42.808;23.408;2023-03-26T07:47:23;94624.28;;;11.26;74.58
24280;BME280;12395;42.808;23.408;2023-03-26T07:49:52;94623.78;;;11.36;77.22
24280;BME280;12395;42.808;23.408;2023-03-26T07:52:17;94615.91;;;11.47;76.44
24280;BME280;12395;42.808;23.408;2023-03-26T07:54:43;94624.25;;;11.51;72.90
24280;BME280;12395;42.808;23.408;2023-03-26T07:57:12;94623.41;;;11.50;72.02
24280;BME280;12395;42.808;23.408;2023-03-26T08:10:09;94621.28;;;11.41;71.77
24280;BME280;12395;42.808;23.408;2023-03-26T08:12:40;94613.97;;;11.36;70.19
24280;BME280;12395;42.808;23.408;2023-03-26T08:17:49;94608.19;;;11.46;69.25
24280;BME280;12395;42.808;23.408;2023-03-26T08:22:43;94609.78;;;11.47;68.96
24280;BME280;12395;42.808;23.408;2023-03-26T08:25:27;94612.69;;;11.63;70.27
24280;BME280;12395;42.808;23.408;2023-03-26T08:30:28;94613.75;;;11.81;66.98
24280;BME280;12395;42.808;23.408;2023-03-26T08:32:58;94613.91;;;11.86;66.74
24280;BME280;12395;42.808;23.408;2023-03-26T08:35:26;94609.44;;;12.16;66.72
24280;BME280;12395;42.808;23.408;2023-03-26T08:37:52;94623.31;;;12.48;62.36
24280;BME280;12395;42.808;23.408;2023-03-26T08:41:21;94618.81;;;12.48;60.25
24280;BME280;12395;42.808;23.408;2023-03-26T08:45:47;94618.63;;;12.61;62.08
24280;BME280;12395;42.808;23.408;2023-03-26T08:55:56;94609.31;;;12.82;58.02
24280;BME280;12395;42.808;23.408;2023-03-26T09:03:38;94630.69;;;13.28;56.44
24280;BME280;12395;42.808;23.408;2023-03-26T09:09:11;94617.75;;;13.66;55.58
24280;BME280;12395;42.808;23.408;2023-03-26T09:12:19;94618.88;;;13.47;54.66
24280;BME280;12395;42.808;23.408;2023-03-26T09:24:45;94595.88;;;13.41;53.65
24280;BME280;12395;42.808;23.408;2023-03-26T09:42:43;94572.94;;;13.63;51.52
24280;BME280;12395;42.808;23.408;2023-03-26T09:58:39;94555.34;;;13.74;53.23
24280;BME280;12395;42.808;23.408;2023-03-26T10:01:07;94557.38;;;13.95;53.18
24280;BME280;12395;42.808;23.408;2023-03-26T10:32:04;94507.59;;;15.57;46.20
24280;BME280;12395;42.808;23.408;2023-03-26T10:39:31;94479.00;;;15.79;46.67
24280;BME280;12395;42.808;23.408;2023-03-26T10:47:27;94466.22;;;15.81;45.26
24280;BME280;12395;42.808;23.408;2023-03-26T10:52:45;94478.63;;;15.92;43.65
24280;BME280;12395;42.808;23.408;2023-03-26T10:55:14;94475.31;;;16.06;45.36
24280;BME280;12395;42.808;23.408;2023-03-26T11:00:32;94466.91;;;16.46;42.23
24280;BME280;12395;42.808;23.408;2023-03-26T11:05:43;94439.13;;;16.20;44.13
24280;BME280;12395;42.808;23.408;2023-03-26T11:08:19;94448.38;;;16.13;42.43
24280;BME280;12395;42.808;23.408;2023-03-26T11:10:56;94445.63;;;16.03;42.90
24280;BME280;12395;42.808;23.408;2023-03-26T11:16:23;94431.09;;;15.67;40.88
24280;BME280;12395;42.808;23.408;2023-03-26T11:19:10;94415.91;;;15.73;42.31
24280;BME280;12395;42.808;23.408;2023-03-26T11:21:43;94429.13;;;15.84;41.50
24280;BME280;12395;42.808;23.408;2023-03-26T11:26:48;94423.31;;;15.66;40.86
24280;BME280;12395;42.808;23.408;2023-03-26T11:29:33;94417.03;;;15.55;40.88
24280;BME280;12395;42.808;23.408;2023-03-26T11:34:46;94422.19;;;15.62;39.59
24280;BME280;12395;42.808;23.408;2023-03-26T11:37:28;94420.06;;;15.64;40.44
24280;BME280;12395;42.808;23.408;2023-03-26T11:39:55;94418.41;;;15.58;40.48
24280;BME280;12395;42.808;23.408;2023-03-26T11:42:22;94394.94;;;15.60;39.78
24280;BME280;12395;42.808;23.408;2023-03-26T11:45:22;94391.22;;;15.61;41.13
24280;BME280;12395;42.808;23.408;2023-03-26T11:47:41;94392.00;;;15.61;40.30
24280;BME280;12395;42.808;23.408;2023-03-26T11:50:14;94383.75;;;15.63;40.09
24280;BME280;12395;42.808;23.408;2023-03-26T11:52:40;94375.28;;;15.71;40.71
24280;BME280;12395;42.808;23.408;2023-03-26T11:55:09;94375.78;;;15.68;38.74
24280;BME280;12395;42.808;23.408;2023-03-26T11:57:35;94373.84;;;15.63;39.23
24280;BME280;12395;42.808;23.408;2023-03-26T12:00:11;94366.09;;;15.62;39.59
24280;BME280;12395;42.808;23.408;2023-03-26T12:02:41;94367.34;;;15.76;38.88
24280;BME280;12395;42.808;23.408;2023-03-26T12:07:32;94363.78;;;15.70;38.21
24280;BME280;12395;42.808;23.408;2023-03-26T12:09:59;94363.84;;;15.75;38.23
24280;BME280;12395;42.808;23.408;2023-03-26T12:12:45;94345.38;;;15.69;37.59
24280;BME280;12395;42.808;23.408;2023-03-26T12:15:13;94353.56;;;15.89;38.43
24280;BME280;12395;42.808;23.408;2023-03-26T12:17:40;94346.50;;;16.04;39.37
24280;BME280;12395;42.808;23.408;2023-03-26T12:22:50;94328.66;;;16.10;39.02
24280;BME280;12395;42.808;23.408;2023-03-26T12:25:17;94330.31;;;16.21;37.94
24280;BME280;12395;42.808;23.408;2023-03-26T12:27:44;94330.59;;;16.19;38.29
24280;BME280;12395;42.808;23.408;2023-03-26T12:30:20;94339.88;;;16.12;37.42
24280;BME280;12395;42.808;23.408;2023-03-26T12:32:47;94324.13;;;16.15;37.21
24280;BME280;12395;42.808;23.408;2023-03-26T12:35:14;94314.84;;;16.23;37.20
24280;BME280;12395;42.808;23.408;2023-03-26T12:37:43;94321.59;;;16.31;36.67
24280;BME280;12395;42.808;23.408;2023-03-26T12:42:50;94301.84;;;16.37;37.54
24280;BME280;12395;42.808;23.408;2023-03-26T12:45:15;94299.75;;;16.44;37.03
24280;BME280;12395;42.808;23.408;2023-03-26T12:47:44;94306.19;;;16.48;36.73
24280;BME280;12395;42.808;23.408;2023-03-26T12:50:13;94297.91;;;16.49;38.08
24280;BME280;12395;42.808;23.408;2023-03-26T12:57:42;94296.66;;;16.62;37.01
24280;BME280;12395;42.808;23.408;2023-03-26T13:00:17;94283.09;;;16.73;36.22
24280;BME280;12395;42.808;23.408;2023-03-26T13:05:49;94295.72;;;16.78;35.41
24280;BME280;12395;42.808;23.408;2023-03-26T13:08:22;94286.31;;;16.75;35.39
24280;BME280;12395;42.808;23.408;2023-03-26T13:15:53;94290.41;;;16.88;34.05
24280;BME280;12395;42.808;23.408;2023-03-26T13:23:27;94288.19;;;16.75;33.53
24280;BME280;12395;42.808;23.408;2023-03-26T13:25:58;94283.34;;;16.67;32.65
24280;BME280;12395;42.808;23.408;2023-03-26T13:41:48;94268.41;;;16.81;32.78
24280;BME280;12395;42.808;23.408;2023-03-26T13:46:45;94277.84;;;16.93;31.41
24280;BME280;12395;42.808;23.408;2023-03-26T13:49:13;94276.50;;;16.96;32.04
24280;BME280;12395;42.808;23.408;2023-03-26T14:02:01;94268.81;;;17.10;31.08
24280;BME280;12395;42.808;23.408;2023-03-26T14:04:29;94254.31;;;16.95;30.80
24280;BME280;12395;42.808;23.408;2023-03-26T14:12:20;94257.81;;;17.01;29.84
24280;BME280;12395;42.808;23.408;2023-03-26T14:15:00;94261.84;;;17.04;29.75
24280;BME280;12395;42.808;23.408;2023-03-26T14:20:19;94254.50;;;16.79;28.97
24280;BME280;12395;42.808;23.408;2023-03-26T14:25:36;94244.09;;;16.82;29.53
24280;BME280;12395;42.808;23.408;2023-03-26T14:30:53;94261.22;;;16.86;28.57
24280;BME280;12395;42.808;23.408;2023-03-26T14:36:13;94253.09;;;16.61;28.40
24280;BME280;12395;42.808;23.408;2023-03-26T14:49:07;94241.34;;;16.72;27.96
24280;BME280;12395;42.808;23.408;2023-03-26T14:54:18;94254.81;;;16.87;27.23
24280;BME280;12395;42.808;23.408;2023-03-26T15:40:42;94247.94;;;16.08;26.10
24280;BME280;12395;42.808;23.408;2023-03-26T15:43:10;94264.47;;;16.05;27.14
24280;BME280;12395;42.808;23.408;2023-03-26T15:48:35;94256.94;;;15.97;28.58
24280;BME280;12395;42.808;23.408;2023-03-26T16:12:29;94258.03;;;15.42;28.69
24280;BME280;12395;42.808;23.408;2023-03-26T16:20:32;94250.88;;;14.95;29.66
24280;BME280;12395;42.808;23.408;2023-03-26T16:22:58;94254.78;;;14.87;29.69
24280;BME280;12395;42.808;23.408;2023-03-26T16:33:37;94247.28;;;14.41;31.01
24280;BME280;12395;42.808;23.408;2023-03-26T16:41:28;94260.59;;;14.08;31.84
24280;BME280;12395;42.808;23.408;2023-03-26T16:46:25;94259.34;;;13.77;32.45
24280;BME280;12395;42.808;23.408;2023-03-26T16:54:11;94253.75;;;13.45;32.90
24280;BME280;12395;42.808;23.408;2023-03-26T16:56:44;94246.66;;;13.34;33.37
24280;BME280;12395;42.808;23.408;2023-03-26T17:02:34;94255.56;;;13.11;34.19
24280;BME280;12395;42.808;23.408;2023-03-26T17:04:53;94248.31;;;12.95;34.52
24280;BME280;12395;42.808;23.408;2023-03-26T17:07:22;94246.75;;;12.83;35.40
24280;BME280;12395;42.808;23.408;2023-03-26T17:09:54;94253.47;;;12.74;36.97
24280;BME280;12395;42.808;23.408;2023-03-26T17:14:58;94252.97;;;12.49;35.13
24280;BME280;12395;42.808;23.408;2023-03-26T17:20:38;94258.06;;;12.50;35.89
24280;BME280;12395;42.808;23.408;2023-03-26T17:25:36;94263.38;;;12.38;36.37
24280;BME280;12395;42.808;23.408;2023-03-26T17:33:40;94265.38;;;12.08;38.33
24280;BME280;12395;42.808;23.408;2023-03-26T17:41:03;94263.97;;;11.83;39.98
24280;BME280;12395;42.808;23.408;2023-03-26T17:43:33;94258.94;;;11.70;40.37
24280;BME280;12395;42.808;23.408;2023-03-26T17:46:00;94255.16;;;11.59;40.55
24280;BME280;12395;42.808;23.408;2023-03-26T17:48:26;94249.63;;;11.49;40.96
24280;BME280;12395;42.808;23.408;2023-03-26T17:50:58;94252.84;;;11.39;41.30
24280;BME280;12395;42.808;23.408;2023-03-26T17:53:27;94245.09;;;11.26;41.56
24280;BME280;12395;42.808;23.408;2023-03-26T17:55:54;94249.69;;;11.19;42.09
24280;BME280;12395;42.808;23.408;2023-03-26T18:00:51;94261.13;;;11.02;41.94
24280;BME280;12395;42.808;23.408;2023-03-26T18:03:33;94251.94;;;11.04;41.84
24280;BME280;12395;42.808;23.408;2023-03-26T18:06:35;94255.50;;;10.98;42.14
24280;BME280;12395;42.808;23.408;2023-03-26T18:09:03;94255.59;;;10.92;41.74
24280;BME280;12395;42.808;23.408;2023-03-26T18:11:45;94254.84;;;10.84;42.14
24280;BME280;12395;42.808;23.408;2023-03-26T18:16:53;94256.47;;;10.85;44.88
24280;BME280;12395;42.808;23.408;2023-03-26T18:19:21;94253.78;;;10.74;45.60
24280;BME280;12395;42.808;23.408;2023-03-26T18:24:17;94253.59;;;10.57;44.84
24280;BME280;12395;42.808;23.408;2023-03-26T18:26:44;94259.56;;;10.53;44.06
24280;BME280;12395;42.808;23.408;2023-03-26T18:29:29;94266.69;;;10.52;43.86
24280;BME280;12395;42.808;23.408;2023-03-26T18:31:59;94254.78;;;10.43;44.02
24280;BME280;12395;42.808;23.408;2023-03-26T18:34:25;94252.50;;;10.47;43.61
24280;BME280;12395;42.808;23.408;2023-03-26T18:39:34;94245.53;;;10.34;44.53
24280;BME280;12395;42.808;23.408;2023-03-26T18:42:00;94240.97;;;10.23;44.97
24280;BME280;12395;42.808;23.408;2023-03-26T18:44:26;94236.78;;;10.16;45.88
24280;BME280;12395;42.808;23.408;2023-03-26T18:46:52;94234.94;;;10.16;46.88
24280;BME280;12395;42.808;23.408;2023-03-26T18:49:20;94229.84;;;9.96;47.25
24280;BME280;12395;42.808;23.408;2023-03-26T18:51:48;94233.88;;;9.99;45.61
24280;BME280;12395;42.808;23.408;2023-03-26T18:54:15;94230.19;;;10.00;47.37
24280;BME280;12395;42.808;23.408;2023-03-26T18:56:42;94221.44;;;9.81;48.40
24280;BME280;12395;42.808;23.408;2023-03-26T18:59:28;94225.63;;;9.71;49.01
24280;BME280;12395;42.808;23.408;2023-03-26T19:01:54;94224.88;;;9.64;49.73
24280;BME280;12395;42.808;23.408;2023-03-26T19:04:22;94222.94;;;9.53;50.26
24280;BME280;12395;42.808;23.408;2023-03-26T19:06:48;94215.41;;;9.31;50.93
24280;BME280;12395;42.808;23.408;2023-03-26T19:09:17;94206.44;;;9.32;49.55
24280;BME280;12395;42.808;23.408;2023-03-26T19:11:43;94201.94;;;9.33;49.16